Time;durP1;ratioP1;P1;durP2;ratioP2;P2;SDS_P1;SDS_P2;PMS_P1;PMS_P2;Temp;Humidity;BMP_temperature;BMP_pressure;BME280_temperature;BME280_humidity;BME280_pressure;Samples;Min_cycle;Max_cycle;Signal;HPM_P1;HPM_P2
2022/10/20 00:00:57;;;;;;;14.18;5.07;;;;;;;;;;5139736;27;20042;-72
2022/10/20 00:03:24;;;;;;;10.95;5.10;;;;;;;;;;5123534;27;20441;-72
2022/10/20 00:05:50;;;;;;;9.23;4.97;;;;;;;;;;5141644;27;20127;-72
2022/10/20 00:08:16;;;;;;;11.50;4.75;;;;;;;;;;5135542;27;20042;-72
2022/10/20 00:10:42;;;;;;;10.68;4.88;;;;;;;;;;5119694;27;20042;-72
2022/10/20 00:13:08;;;;;;;10.13;4.63;;;;;;;;;;5138207;27;20042;-72
2022/10/20 00:15:34;;;;;;;10.48;4.70;;;;;;;;;;5138260;27;20051;-72
2022/10/20 00:18:00;;;;;;;12.50;5.60;;;;;;;;;;5139495;27;20061;-72
2022/10/20 00:20:27;;;;;;;8.27;5.00;;;;;;;;;;5138905;27;20449;-72
2022/10/20 00:22:52;;;;;;;12.18;5.63;;;;;;;;;;5138479;27;20103;-71
2022/10/20 00:25:18;;;;;;;10.52;5.10;;;;;;;;;;5138754;27;20511;-72
2022/10/20 00:27:44;;;;;;;12.63;5.55;;;;;;;;;;5141380;27;20079;-72
2022/10/20 00:30:11;;;;;;;12.02;5.80;;;;;;;;;;5136520;27;20038;-72
2022/10/20 00:32:37;;;;;;;10.00;5.32;;;;;;;;;;5138103;27;20043;-72
2022/10/20 00:35:03;;;;;;;11.32;5.38;;;;;;;;;;5134819;27;20039;-72
2022/10/20 00:37:29;;;;;;;10.45;5.28;;;;;;;;;;5137500;27;20046;-72
2022/10/20 00:39:55;;;;;;;9.52;5.07;;;;;;;;;;5147112;27;20408;-73
2022/10/20 00:42:21;;;;;;;12.48;5.25;;;;;;;;;;5132936;27;20036;-72
2022/10/20 00:44:55;;;;;;;12.18;5.68;;;;;;;;;;5143820;27;20062;-73
2022/10/20 00:47:33;;;;;;;12.68;5.38;;;;;;;;;;5146594;27;20043;-73
2022/10/20 00:50:04;;;;;;;10.48;5.20;;;;;;;;;;5132938;27;20043;-73
2022/10/20 00:52:30;;;;;;;10.63;5.45;;;;;;;;;;5135743;27;20481;-71
2022/10/20 00:54:56;;;;;;;11.55;5.55;;;;;;;;;;5145777;27;20617;-72
2022/10/20 00:57:22;;;;;;;11.15;5.38;;;;;;;;;;5151401;27;20074;-71
2022/10/20 00:59:48;;;;;;;10.60;5.65;;;;;;;;;;5140346;27;20039;-72
2022/10/20 01:02:14;;;;;;;12.35;5.63;;;;;;;;;;5144077;27;20030;-71
2022/10/20 01:04:41;;;;;;;10.52;5.38;;;;;;;;;;5119671;27;20386;-72
2022/10/20 01:07:07;;;;;;;12.60;5.50;;;;;;;;;;5133577;27;20408;-72
2022/10/20 01:09:33;;;;;;;13.48;5.80;;;;;;;;;;5140530;27;20034;-72
2022/10/20 01:12:22;;;;;;;11.88;5.40;;;;;;;;;;5114743;28;20503;-72
2022/10/20 01:14:51;;;;;;;13.80;5.90;;;;;;;;;;5133912;27;20039;-72
2022/10/20 01:17:20;;;;;;;15.80;5.85;;;;;;;;;;5139210;27;20039;-72
2022/10/20 01:19:46;;;;;;;10.40;5.60;;;;;;;;;;5128093;28;20134;-73
2022/10/20 01:22:18;;;;;;;11.40;5.57;;;;;;;;;;5132854;27;20126;-71
2022/10/20 01:24:47;;;;;;;11.57;6.00;;;;;;;;;;5146935;27;20074;-73
2022/10/20 01:27:32;;;;;;;10.68;5.53;;;;;;;;;;5140800;27;20043;-72
2022/10/20 01:30:04;;;;;;;13.10;6.00;;;;;;;;;;5133279;27;20035;-72
2022/10/20 01:32:47;;;;;;;13.13;6.07;;;;;;;;;;5135039;27;20050;-73
2022/10/20 01:35:30;;;;;;;10.48;5.78;;;;;;;;;;5150539;27;20046;-73
2022/10/20 01:38:09;;;;;;;13.20;6.30;;;;;;;;;;5143521;27;20039;-73
2022/10/20 01:40:42;;;;;;;11.05;6.05;;;;;;;;;;5145944;27;20561;-73
2022/10/20 01:43:11;;;;;;;10.15;5.75;;;;;;;;;;5136308;27;20507;-72
2022/10/20 01:45:39;;;;;;;10.90;5.78;;;;;;;;;;5151801;27;20035;-73
2022/10/20 01:48:05;;;;;;;12.80;6.20;;;;;;;;;;5138151;27;20035;-73
2022/10/20 01:50:33;;;;;;;16.25;6.22;;;;;;;;;;5133195;27;20107;-73
2022/10/20 01:53:00;;;;;;;13.13;6.47;;;;;;;;;;5133293;27;20092;-73
2022/10/20 01:55:26;;;;;;;11.05;6.68;;;;;;;;;;5136212;27;20035;-73
2022/10/20 01:57:55;;;;;;;11.05;6.60;;;;;;;;;;5148198;27;20053;-73
2022/10/20 02:00:21;;;;;;;9.38;6.13;;;;;;;;;;5142437;27;20112;-73
2022/10/20 02:02:50;;;;;;;11.82;6.10;;;;;;;;;;5149413;27;20046;-73
2022/10/20 02:05:22;;;;;;;11.13;6.43;;;;;;;;;;5154111;27;20066;-73
2022/10/20 02:07:48;;;;;;;15.23;7.15;;;;;;;;;;5156715;27;20039;-72
2022/10/20 02:10:22;;;;;;;13.57;6.32;;;;;;;;;;5147461;27;20046;-72
2022/10/20 02:12:52;;;;;;;12.80;6.43;;;;;;;;;;5144246;27;20076;-73
2022/10/20 02:15:20;;;;;;;14.30;6.85;;;;;;;;;;5156054;27;20119;-72
2022/10/20 02:17:47;;;;;;;11.15;6.45;;;;;;;;;;5151010;27;20075;-73
2022/10/20 02:20:14;;;;;;;10.32;6.00;;;;;;;;;;5133132;27;20051;-72
2022/10/20 02:22:40;;;;;;;13.38;6.80;;;;;;;;;;5139189;27;20039;-73
2022/10/20 02:25:07;;;;;;;15.48;7.90;;;;;;;;;;5152317;27;20133;-72
2022/10/20 02:27:34;;;;;;;13.23;7.68;;;;;;;;;;5156998;27;20095;-71
2022/10/20 02:30:05;;;;;;;12.30;7.25;;;;;;;;;;5142254;27;20046;-72
2022/10/20 02:32:32;;;;;;;12.77;7.72;;;;;;;;;;5144632;27;20493;-72
2022/10/20 02:34:58;;;;;;;17.48;7.63;;;;;;;;;;5149046;27;20071;-72
2022/10/20 02:37:24;;;;;;;12.57;7.90;;;;;;;;;;5146463;27;20492;-72
2022/10/20 02:39:50;;;;;;;11.02;7.38;;;;;;;;;;5143614;27;20091;-72
2022/10/20 02:42:16;;;;;;;16.25;7.47;;;;;;;;;;5147935;27;20047;-72
2022/10/20 02:44:42;;;;;;;15.70;7.97;;;;;;;;;;5124432;27;20121;-73
2022/10/20 02:47:08;;;;;;;14.45;8.63;;;;;;;;;;5151798;27;20043;-72
2022/10/20 02:49:34;;;;;;;12.38;8.50;;;;;;;;;;5143136;27;20130;-72
2022/10/20 02:52:00;;;;;;;13.27;8.95;;;;;;;;;;5141724;27;20148;-72
2022/10/20 02:54:27;;;;;;;14.15;8.55;;;;;;;;;;5138620;27;20435;-73
2022/10/20 02:56:53;;;;;;;16.10;9.02;;;;;;;;;;5148947;27;20043;-72
2022/10/20 02:59:20;;;;;;;17.15;9.32;;;;;;;;;;5150561;27;20058;-72
2022/10/20 03:01:46;;;;;;;11.88;8.50;;;;;;;;;;5134474;27;20593;-72
2022/10/20 03:04:12;;;;;;;13.93;9.32;;;;;;;;;;5138930;27;20039;-73
2022/10/20 03:06:39;;;;;;;12.68;9.50;;;;;;;;;;5134154;27;20047;-72
2022/10/20 03:09:05;;;;;;;14.90;9.50;;;;;;;;;;5139385;27;20069;-72
2022/10/20 03:11:31;;;;;;;15.27;9.85;;;;;;;;;;5135408;27;20043;-72
2022/10/20 03:13:57;;;;;;;15.20;9.80;;;;;;;;;;5141554;27;20484;-72
2022/10/20 03:16:23;;;;;;;14.60;9.77;;;;;;;;;;5144910;27;20039;-72
2022/10/20 03:18:49;;;;;;;14.18;9.80;;;;;;;;;;5153958;27;20047;-73
2022/10/20 03:21:15;;;;;;;15.90;10.20;;;;;;;;;;5131467;27;20051;-72
2022/10/20 03:23:41;;;;;;;15.38;10.38;;;;;;;;;;5134936;27;20043;-72
2022/10/20 03:26:08;;;;;;;14.40;10.30;;;;;;;;;;5135415;27;20392;-72
2022/10/20 03:28:34;;;;;;;17.35;10.55;;;;;;;;;;5134997;27;20088;-72
2022/10/20 03:31:00;;;;;;;15.60;11.20;;;;;;;;;;5153947;27;20042;-73
2022/10/20 03:33:26;;;;;;;15.50;10.50;;;;;;;;;;5141375;27;20042;-72
2022/10/20 03:35:52;;;;;;;15.32;10.60;;;;;;;;;;5145146;27;20035;-72
2022/10/20 03:38:18;;;;;;;15.00;10.13;;;;;;;;;;5144495;27;20042;-72
2022/10/20 03:40:44;;;;;;;18.45;11.60;;;;;;;;;;5151070;27;20050;-72
2022/10/20 03:43:10;;;;;;;16.02;11.13;;;;;;;;;;5151050;27;20043;-72
2022/10/20 03:45:36;;;;;;;14.23;10.60;;;;;;;;;;5136648;27;20125;-73
2022/10/20 03:48:02;;;;;;;19.15;11.05;;;;;;;;;;5143391;27;20484;-73
2022/10/20 03:50:28;;;;;;;16.17;11.30;;;;;;;;;;5120623;27;20556;-72
2022/10/20 03:52:54;;;;;;;17.92;11.80;;;;;;;;;;5137431;27;20548;-71
2022/10/20 03:55:20;;;;;;;17.98;11.90;;;;;;;;;;5148112;27;20043;-72
2022/10/20 03:57:46;;;;;;;17.35;11.98;;;;;;;;;;5148981;27;20073;-73
2022/10/20 04:00:12;;;;;;;16.02;11.55;;;;;;;;;;5144581;27;20452;-73
2022/10/20 04:02:40;;;;;;;18.67;11.85;;;;;;;;;;5119812;27;20046;-72
2022/10/20 04:05:07;;;;;;;16.85;12.43;;;;;;;;;;5147330;27;20042;-73
2022/10/20 04:07:33;;;;;;;16.85;12.65;;;;;;;;;;5139893;27;20031;-72
2022/10/20 04:10:01;;;;;;;16.80;12.05;;;;;;;;;;5153370;27;20099;-72
2022/10/20 04:12:27;;;;;;;16.20;12.38;;;;;;;;;;5144095;27;20046;-72
2022/10/20 04:14:53;;;;;;;18.88;12.48;;;;;;;;;;5147150;27;20039;-73
2022/10/20 04:17:19;;;;;;;17.35;12.52;;;;;;;;;;5138720;27;20039;-72
2022/10/20 04:19:45;;;;;;;19.27;12.85;;;;;;;;;;5120640;27;20416;-72
2022/10/20 04:22:11;;;;;;;19.05;13.23;;;;;;;;;;5144016;27;20043;-73
2022/10/20 04:24:37;;;;;;;19.35;13.60;;;;;;;;;;5144552;27;20034;-72
2022/10/20 04:27:04;;;;;;;16.77;12.98;;;;;;;;;;5146173;27;20081;-72
2022/10/20 04:29:30;;;;;;;18.38;14.43;;;;;;;;;;5126612;27;20045;-72
2022/10/20 04:31:56;;;;;;;23.35;14.10;;;;;;;;;;5102635;27;20067;-72
2022/10/20 04:34:22;;;;;;;17.63;13.82;;;;;;;;;;5142927;27;20045;-71
2022/10/20 04:36:48;;;;;;;18.50;14.13;;;;;;;;;;5143529;27;20492;-72
2022/10/20 04:39:14;;;;;;;20.20;14.13;;;;;;;;;;5145610;27;20050;-72
2022/10/20 04:41:40;;;;;;;19.30;14.98;;;;;;;;;;5150917;27;20038;-72
2022/10/20 04:44:06;;;;;;;16.65;13.93;;;;;;;;;;5137252;27;20513;-71
2022/10/20 04:46:32;;;;;;;18.92;14.43;;;;;;;;;;5115493;27;20689;-71
2022/10/20 04:48:58;;;;;;;21.92;15.77;;;;;;;;;;5146045;27;20436;-72
2022/10/20 04:51:24;;;;;;;19.02;15.05;;;;;;;;;;5137976;27;20042;-71
2022/10/20 04:53:50;;;;;;;20.80;14.95;;;;;;;;;;5147371;27;20487;-72
2022/10/20 04:56:20;;;;;;;18.95;15.65;;;;;;;;;;5152738;27;20067;-71
2022/10/20 04:58:50;;;;;;;20.65;15.13;;;;;;;;;;5151144;27;20034;-72
2022/10/20 05:01:16;;;;;;;19.85;15.23;;;;;;;;;;5139420;27;20043;-72
2022/10/20 05:03:42;;;;;;;17.50;14.88;;;;;;;;;;5144895;27;20064;-72
2022/10/20 05:06:12;;;;;;;21.00;15.32;;;;;;;;;;5132318;27;20122;-71
2022/10/20 05:08:39;;;;;;;19.83;15.10;;;;;;;;;;5116706;27;20497;-72
2022/10/20 05:11:05;;;;;;;23.25;15.60;;;;;;;;;;5138036;27;20046;-73
2022/10/20 05:13:31;;;;;;;22.50;14.90;;;;;;;;;;5144208;27;20049;-72
2022/10/20 05:15:57;;;;;;;22.52;16.02;;;;;;;;;;5133077;27;20441;-72
2022/10/20 05:18:23;;;;;;;19.90;16.45;;;;;;;;;;5133192;27;20055;-72
2022/10/20 05:20:49;;;;;;;17.90;15.35;;;;;;;;;;5133823;27;20057;-72
2022/10/20 05:23:15;;;;;;;22.65;16.13;;;;;;;;;;5141496;27;20351;-72
2022/10/20 05:25:41;;;;;;;20.98;16.52;;;;;;;;;;5135267;27;20039;-72
2022/10/20 05:28:07;;;;;;;27.40;16.90;;;;;;;;;;5140112;27;20400;-72
2022/10/20 05:30:34;;;;;;;20.40;16.25;;;;;;;;;;5146612;27;20050;-72
2022/10/20 05:33:00;;;;;;;23.65;16.63;;;;;;;;;;5137120;27;20480;-71
2022/10/20 05:35:27;;;;;;;22.17;16.20;;;;;;;;;;5141520;27;20122;-71
2022/10/20 05:37:53;;;;;;;20.90;15.85;;;;;;;;;;5142490;27;20389;-72
2022/10/20 05:40:19;;;;;;;20.33;16.58;;;;;;;;;;5142267;27;20046;-72
2022/10/20 05:42:45;;;;;;;23.50;16.38;;;;;;;;;;5103662;27;20050;-72
2022/10/20 05:45:11;;;;;;;19.65;15.93;;;;;;;;;;5137060;27;20038;-71
2022/10/20 05:47:37;;;;;;;24.17;17.63;;;;;;;;;;5139766;27;20035;-71
2022/10/20 05:50:03;;;;;;;23.08;17.17;;;;;;;;;;5141708;27;20046;-72
2022/10/20 05:52:29;;;;;;;20.77;17.10;;;;;;;;;;5149847;27;20046;-72
2022/10/20 05:54:55;;;;;;;16.00;12.35;;;;;;;;;;5146878;27;20046;-66
2022/10/20 05:57:21;;;;;;;21.77;14.93;;;;;;;;;;5138201;27;20140;-65
2022/10/20 05:59:47;;;;;;;37.05;16.17;;;;;;;;;;5140745;27;20043;-66
2022/10/20 06:02:13;;;;;;;30.40;16.85;;;;;;;;;;5143338;27;20042;-66
2022/10/20 06:04:40;;;;;;;23.42;16.55;;;;;;;;;;5133708;27;20461;-65
2022/10/20 06:07:08;;;;;;;25.45;16.02;;;;;;;;;;5138113;27;20392;-66
2022/10/20 06:09:34;;;;;;;19.27;16.42;;;;;;;;;;5135050;27;20047;-71
2022/10/20 06:12:00;;;;;;;21.65;16.33;;;;;;;;;;5137454;27;20038;-70
2022/10/20 06:14:26;;;;;;;22.15;16.60;;;;;;;;;;5150752;27;20057;-71
2022/10/20 06:16:53;;;;;;;22.27;16.60;;;;;;;;;;5138817;27;20031;-70
2022/10/20 06:19:19;;;;;;;17.23;15.15;;;;;;;;;;5135478;27;20171;-71
2022/10/20 06:21:45;;;;;;;20.25;16.58;;;;;;;;;;5140721;27;20058;-71
2022/10/20 06:24:11;;;;;;;22.08;16.92;;;;;;;;;;5137094;27;20047;-71
2022/10/20 06:26:38;;;;;;;19.95;16.10;;;;;;;;;;5143588;27;20488;-71
2022/10/20 06:29:05;;;;;;;19.25;16.02;;;;;;;;;;5147730;27;20106;-71
2022/10/20 06:31:33;;;;;;;24.92;16.75;;;;;;;;;;5142557;27;20049;-71
2022/10/20 06:33:59;;;;;;;20.33;16.70;;;;;;;;;;5154965;27;20039;-71
2022/10/20 06:36:26;;;;;;;22.23;17.15;;;;;;;;;;5156776;27;20074;-71
2022/10/20 06:38:53;;;;;;;21.00;16.77;;;;;;;;;;5154975;27;20104;-71
2022/10/20 06:41:19;;;;;;;22.48;17.10;;;;;;;;;;5154975;27;20053;-72
2022/10/20 06:43:46;;;;;;;21.05;17.50;;;;;;;;;;5135343;27;20043;-72
2022/10/20 06:46:13;;;;;;;23.67;17.10;;;;;;;;;;5136311;27;20763;-72
2022/10/20 06:48:39;;;;;;;22.17;17.42;;;;;;;;;;5147547;27;20484;-72
2022/10/20 06:51:06;;;;;;;21.98;17.00;;;;;;;;;;5143333;27;20050;-72
2022/10/20 06:53:34;;;;;;;20.25;17.30;;;;;;;;;;5134704;27;20054;-71
2022/10/20 06:56:27;;;;;;;20.20;16.23;;;;;;;;;;5136080;27;20047;-71
2022/10/20 06:58:54;;;;;;;19.00;16.27;;;;;;;;;;5132357;27;20051;-71
2022/10/20 07:01:30;;;;;;;24.02;16.38;;;;;;;;;;5138720;27;20084;-72
2022/10/20 07:03:58;;;;;;;19.17;15.57;;;;;;;;;;5153486;27;20081;-71
2022/10/20 07:06:25;;;;;;;19.52;15.45;;;;;;;;;;5147824;27;20123;-71
2022/10/20 07:08:52;;;;;;;21.02;15.38;;;;;;;;;;5144772;27;20035;-71
2022/10/20 07:11:20;;;;;;;18.40;15.48;;;;;;;;;;5145470;27;20053;-71
2022/10/20 07:13:48;;;;;;;19.33;15.85;;;;;;;;;;5135210;27;20129;-71
2022/10/20 07:16:15;;;;;;;21.85;15.20;;;;;;;;;;5135176;27;20385;-71
2022/10/20 07:18:41;;;;;;;16.98;14.80;;;;;;;;;;5134420;27;20050;-71
2022/10/20 07:21:09;;;;;;;18.88;14.52;;;;;;;;;;5136026;27;20051;-71
2022/10/20 07:23:35;;;;;;;19.92;15.20;;;;;;;;;;5140728;27;20102;-71
2022/10/20 07:26:02;;;;;;;16.98;14.50;;;;;;;;;;5144583;27;20039;-71
2022/10/20 07:28:28;;;;;;;18.75;13.93;;;;;;;;;;5144770;27;20046;-71
2022/10/20 07:30:54;;;;;;;18.20;13.80;;;;;;;;;;5135078;27;20412;-71
2022/10/20 07:33:20;;;;;;;16.83;12.93;;;;;;;;;;5139615;27;20412;-72
2022/10/20 07:35:48;;;;;;;18.38;12.48;;;;;;;;;;5134498;27;20039;-72
2022/10/20 07:38:14;;;;;;;15.77;13.40;;;;;;;;;;5135839;27;20043;-72
2022/10/20 07:40:40;;;;;;;17.63;13.52;;;;;;;;;;5116268;27;20046;-72
2022/10/20 07:43:06;;;;;;;16.38;13.45;;;;;;;;;;5134559;27;20055;-70
2022/10/20 07:45:32;;;;;;;15.85;12.45;;;;;;;;;;5136028;27;20058;-72
2022/10/20 07:47:58;;;;;;;16.73;13.20;;;;;;;;;;5138645;27;20408;-71
2022/10/20 07:50:25;;;;;;;19.58;13.75;;;;;;;;;;5133686;27;20051;-71
2022/10/20 07:52:51;;;;;;;19.38;12.82;;;;;;;;;;5133483;27;20122;-71
2022/10/20 07:55:17;;;;;;;13.88;12.35;;;;;;;;;;5134213;27;20079;-70
2022/10/20 07:57:43;;;;;;;17.13;12.50;;;;;;;;;;5135248;27;20423;-71
2022/10/20 08:00:10;;;;;;;15.50;12.77;;;;;;;;;;5127825;27;20038;-74
2022/10/20 08:02:36;;;;;;;16.63;12.55;;;;;;;;;;5146248;27;20046;-74
2022/10/20 08:05:02;;;;;;;17.02;12.48;;;;;;;;;;5134956;27;20073;-73
2022/10/20 08:07:28;;;;;;;17.42;12.60;;;;;;;;;;5135438;27;20374;-73
2022/10/20 08:09:54;;;;;;;15.45;12.48;;;;;;;;;;5133913;27;20039;-74
2022/10/20 08:12:20;;;;;;;19.08;12.35;;;;;;;;;;5115562;27;20069;-77
2022/10/20 08:14:46;;;;;;;16.20;12.10;;;;;;;;;;5135058;27;20046;-78
2022/10/20 08:17:12;;;;;;;19.95;12.07;;;;;;;;;;5133267;27;20103;-78
2022/10/20 08:19:38;;;;;;;17.10;12.50;;;;;;;;;;5139743;27;20055;-75
2022/10/20 08:22:05;;;;;;;17.13;11.63;;;;;;;;;;5136043;27;20034;-74
2022/10/20 08:24:31;;;;;;;16.65;12.07;;;;;;;;;;5134289;27;20403;-75
2022/10/20 08:26:57;;;;;;;23.75;11.73;;;;;;;;;;5136200;27;20047;-76
2022/10/20 08:29:23;;;;;;;19.55;12.07;;;;;;;;;;5140035;27;20065;-73
2022/10/20 08:31:48;;;;;;;17.15;11.40;;;;;;;;;;5148401;27;20137;-75
2022/10/20 08:34:14;;;;;;;15.57;11.23;;;;;;;;;;5149057;27;20045;-76
2022/10/20 08:36:40;;;;;;;19.38;11.45;;;;;;;;;;5145183;27;20051;-74
2022/10/20 08:39:06;;;;;;;14.25;10.63;;;;;;;;;;5145859;27;20070;-74
2022/10/20 08:41:34;;;;;;;18.75;10.15;;;;;;;;;;5144304;27;20528;-74
2022/10/20 08:44:01;;;;;;;20.55;11.48;;;;;;;;;;5133551;27;20043;-74
2022/10/20 08:46:31;;;;;;;17.75;10.80;;;;;;;;;;5151301;27;20042;-74
2022/10/20 08:48:58;;;;;;;14.00;10.45;;;;;;;;;;5139299;27;20434;-74
2022/10/20 08:51:26;;;;;;;16.42;10.07;;;;;;;;;;5139545;27;20496;-75
2022/10/20 08:53:54;;;;;;;17.80;10.32;;;;;;;;;;5132396;27;20458;-76
2022/10/20 08:56:23;;;;;;;27.00;11.23;;;;;;;;;;5121091;27;20053;-77
2022/10/20 08:58:49;;;;;;;14.30;9.70;;;;;;;;;;5138523;27;20035;-74
2022/10/20 09:01:22;;;;;;;21.45;10.48;;;;;;;;;;5132931;27;20055;-75
2022/10/20 09:03:56;;;;;;;13.98;9.73;;;;;;;;;;5131820;27;20448;-79
2022/10/20 09:06:22;;;;;;;16.55;9.77;;;;;;;;;;5142945;27;20058;-74
2022/10/20 09:08:48;;;;;;;22.52;9.40;;;;;;;;;;5147101;27;20039;-72
2022/10/20 09:11:22;;;;;;;17.08;9.93;;;;;;;;;;5142793;27;20050;-75
2022/10/20 09:13:49;;;;;;;16.70;9.93;;;;;;;;;;5153676;27;20043;-75
2022/10/20 09:16:20;;;;;;;12.98;9.25;;;;;;;;;;5134206;27;20112;-73
2022/10/20 09:18:50;;;;;;;12.45;9.30;;;;;;;;;;5133523;27;20504;-73
2022/10/20 09:21:17;;;;;;;17.35;9.35;;;;;;;;;;5132623;28;20055;-72
2022/10/20 09:23:45;;;;;;;12.15;8.57;;;;;;;;;;5132937;27;20489;-74
2022/10/20 09:26:11;;;;;;;140.90;17.77;;;;;;;;;;5132498;27;20039;-72
2022/10/20 09:28:38;;;;;;;65.10;12.50;;;;;;;;;;5141147;27;20442;-68
2022/10/20 09:31:19;;;;;;;126.00;15.25;;;;;;;;;;5153345;27;20038;-68
2022/10/20 09:33:46;;;;;;;;;;;;;;;;;;5137833;27;20441;-68
2022/10/20 09:36:13;;;;;;;65.05;11.85;;;;;;;;;;5132899;27;19919;-69
2022/10/20 09:38:44;;;;;;;70.55;11.80;;;;;;;;;;5133715;27;20049;-67
2022/10/20 09:41:16;;;;;;;21.85;8.70;;;;;;;;;;5141168;27;20155;-69
2022/10/20 09:43:54;;;;;;;26.85;8.40;;;;;;;;;;5139359;27;20099;-68
2022/10/20 09:46:25;;;;;;;35.15;9.18;;;;;;;;;;5137348;27;20042;-68
2022/10/20 09:48:51;;;;;;;89.82;12.90;;;;;;;;;;5133498;27;20043;-69
2022/10/20 09:51:28;;;;;;;95.95;13.40;;;;;;;;;;5133184;27;20179;-70
2022/10/20 09:54:00;;;;;;;22.58;8.50;;;;;;;;;;5143526;27;20514;-69
2022/10/20 09:56:28;;;;;;;43.58;9.60;;;;;;;;;;5132292;28;20405;-70
2022/10/20 09:58:54;;;;;;;57.15;10.88;;;;;;;;;;5132797;27;20126;-68
2022/10/20 10:01:21;;;;;;;92.95;13.30;;;;;;;;;;5132584;27;20050;-67
2022/10/20 10:03:55;;;;;;;17.83;8.10;;;;;;;;;;5149604;27;20046;-67
2022/10/20 10:06:30;;;;;;;22.05;8.50;;;;;;;;;;5141706;27;20061;-68
2022/10/20 10:08:57;;;;;;;23.45;9.10;;;;;;;;;;5141603;27;20047;-68
2022/10/20 10:11:31;;;;;;;12.75;7.75;;;;;;;;;;5138037;27;20086;-68
2022/10/20 10:13:57;;;;;;;16.85;7.80;;;;;;;;;;5139244;27;20039;-68
2022/10/20 10:16:23;;;;;;;18.17;7.55;;;;;;;;;;5134038;27;20691;-68
2022/10/20 10:18:55;;;;;;;13.73;8.13;;;;;;;;;;5141285;27;20054;-67
2022/10/20 10:21:21;;;;;;;14.73;7.70;;;;;;;;;;5136081;27;20046;-67
2022/10/20 10:23:50;;;;;;;22.13;8.70;;;;;;;;;;5139973;27;20503;-67
2022/10/20 10:26:43;;;;;;;16.33;8.25;;;;;;;;;;5136077;27;20122;-67
2022/10/20 10:29:23;;;;;;;16.95;8.50;;;;;;;;;;5141119;27;20571;-68
2022/10/20 10:31:50;;;;;;;18.20;8.10;;;;;;;;;;5137332;27;20479;-68
2022/10/20 10:34:16;;;;;;;32.72;8.40;;;;;;;;;;5141139;27;20485;-69
2022/10/20 10:36:42;;;;;;;36.42;9.25;;;;;;;;;;5136519;27;20092;-68
2022/10/20 10:39:15;;;;;;;31.27;9.00;;;;;;;;;;5136512;27;21021;-69
2022/10/20 10:41:59;;;;;;;22.88;8.45;;;;;;;;;;5140293;27;20039;-68
2022/10/20 10:44:52;;;;;;;10.48;8.10;;;;;;;;;;5144579;27;20046;-68
2022/10/20 10:47:24;;;;;;;13.20;7.65;;;;;;;;;;5139487;27;20078;-69
2022/10/20 10:49:53;;;;;;;17.45;7.88;;;;;;;;;;5149931;27;20039;-69
2022/10/20 10:52:25;;;;;;;11.02;7.93;;;;;;;;;;5141889;27;20047;-69
2022/10/20 10:54:54;;;;;;;11.70;7.78;;;;;;;;;;5133549;27;20039;-68
2022/10/20 10:57:26;;;;;;;10.68;7.85;;;;;;;;;;5140107;27;20039;-69
2022/10/20 10:59:52;;;;;;;15.23;8.95;;;;;;;;;;5136573;27;20556;-68
2022/10/20 11:02:27;;;;;;;12.38;8.35;;;;;;;;;;5132741;27;20042;-69
2022/10/20 11:04:59;;;;;;;13.45;8.55;;;;;;;;;;5137681;27;20043;-68
2022/10/20 11:07:25;;;;;;;11.48;8.68;;;;;;;;;;5134802;27;20047;-68
2022/10/20 11:10:10;;;;;;;10.70;8.02;;;;;;;;;;5140525;27;20058;-68
2022/10/20 11:12:54;;;;;;;12.20;8.18;;;;;;;;;;5145441;27;20125;-69
2022/10/20 11:15:50;;;;;;;16.38;8.80;;;;;;;;;;5138845;27;20038;-69
2022/10/20 11:18:22;;;;;;;12.98;8.52;;;;;;;;;;5116489;27;20396;-69
2022/10/20 11:21:10;;;;;;;13.73;8.55;;;;;;;;;;5135303;27;20062;-69
2022/10/20 11:23:36;;;;;;;14.43;8.45;;;;;;;;;;5132595;27;20043;-69
2022/10/20 11:26:04;;;;;;;17.10;8.65;;;;;;;;;;5133976;27;20046;-68
2022/10/20 11:28:34;;;;;;;15.50;8.73;;;;;;;;;;5137834;27;20035;-68
2022/10/20 11:31:00;;;;;;;15.73;8.93;;;;;;;;;;5134508;27;20043;-69
2022/10/20 11:33:35;;;;;;;9.90;8.20;;;;;;;;;;5135842;27;20046;-68
2022/10/20 11:36:07;;;;;;;11.63;8.48;;;;;;;;;;5135826;27;20054;-69
2022/10/20 11:38:43;;;;;;;12.95;8.77;;;;;;;;;;5137155;27;20130;-68
2022/10/20 11:41:16;;;;;;;15.35;8.75;;;;;;;;;;5135062;27;20050;-69
2022/10/20 11:43:54;;;;;;;10.48;8.60;;;;;;;;;;5132462;27;20046;-69
2022/10/20 11:46:25;;;;;;;13.40;8.50;;;;;;;;;;5130209;27;20035;-68
2022/10/20 11:48:52;;;;;;;13.73;8.43;;;;;;;;;;5136769;27;20035;-69
2022/10/20 11:51:30;;;;;;;14.07;9.10;;;;;;;;;;5136886;27;20054;-69
2022/10/20 11:54:15;;;;;;;14.60;9.25;;;;;;;;;;5136566;27;20075;-69
2022/10/20 11:56:53;;;;;;;15.68;9.57;;;;;;;;;;5133612;27;20035;-69
2022/10/20 11:59:28;;;;;;;16.60;9.10;;;;;;;;;;5134981;27;20121;-69
2022/10/20 12:02:13;;;;;;;11.65;8.98;;;;;;;;;;5136807;27;20043;-69
2022/10/20 12:04:59;;;;;;;15.60;9.05;;;;;;;;;;5122742;27;20043;-69
2022/10/20 12:07:33;;;;;;;48.60;10.82;;;;;;;;;;5134979;27;20134;-70
2022/10/20 12:10:14;;;;;;;47.45;11.35;;;;;;;;;;5140902;27;20039;-71
2022/10/20 12:12:58;;;;;;;71.95;11.98;;;;;;;;;;5134378;27;20050;-70
2022/10/20 12:15:24;;;;;;;18.77;10.27;;;;;;;;;;5143301;27;20551;-70
2022/10/20 12:17:51;;;;;;;31.30;10.40;;;;;;;;;;5140837;27;20035;-71
2022/10/20 12:20:21;;;;;;;88.55;13.90;;;;;;;;;;5133211;27;20043;-71
2022/10/20 12:22:54;;;;;;;25.20;10.65;;;;;;;;;;5132081;27;20039;-73
2022/10/20 12:25:26;;;;;;;25.38;9.80;;;;;;;;;;5131575;27;20093;-70
2022/10/20 12:28:11;;;;;;;21.27;9.48;;;;;;;;;;5144961;27;20058;-70
2022/10/20 12:30:37;;;;;;;12.60;9.75;;;;;;;;;;5139983;27;20052;-71
2022/10/20 12:33:29;;;;;;;32.25;10.27;;;;;;;;;;5145470;27;20173;-70
2022/10/20 12:35:58;;;;;;;65.30;12.40;;;;;;;;;;5112221;27;20104;-69
2022/10/20 12:38:24;;;;;;;24.27;10.70;;;;;;;;;;5132249;27;20043;-69
2022/10/20 12:40:56;;;;;;;17.15;10.43;;;;;;;;;;5138644;27;20039;-67
2022/10/20 12:43:34;;;;;;;18.48;10.18;;;;;;;;;;5136275;27;20490;-68
2022/10/20 12:46:05;;;;;;;18.85;10.10;;;;;;;;;;5135170;27;20083;-68
2022/10/20 12:48:33;;;;;;;21.70;10.05;;;;;;;;;;5151356;27;20049;-68
2022/10/20 12:51:16;;;;;;;16.88;11.60;;;;;;;;;;5134489;27;20518;-70
2022/10/20 12:53:43;;;;;;;26.20;11.48;;;;;;;;;;5139728;27;20039;-70
2022/10/20 12:56:11;;;;;;;602.35;34.08;;;;;;;;;;5140575;27;20042;-69
2022/10/20 12:58:38;;;;;;;141.80;16.08;;;;;;;;;;5147046;27;20051;-70
2022/10/20 13:01:07;;;;;;;99.55;14.75;;;;;;;;;;5133772;27;20043;-69
2022/10/20 13:03:36;;;;;;;61.63;12.85;;;;;;;;;;5138932;27;20084;-70
2022/10/20 13:06:22;;;;;;;38.38;13.15;;;;;;;;;;5135666;27;20547;-71
2022/10/20 13:09:03;;;;;;;65.28;13.60;;;;;;;;;;5140031;27;20062;-70
2022/10/20 13:11:36;;;;;;;72.57;14.13;;;;;;;;;;5135926;27;20038;-69
2022/10/20 13:14:13;;;;;;;127.55;15.93;;;;;;;;;;5144096;27;20039;-70
2022/10/20 13:16:49;;;;;;;52.20;14.10;;;;;;;;;;5132447;27;20062;-73
2022/10/20 13:19:20;;;;;;;43.95;14.77;;;;;;;;;;5114252;28;20062;-72
2022/10/20 13:21:46;;;;;;;;;;;;;;;;;;5135584;27;20039;-72
2022/10/20 13:24:12;;;;;;;60.60;16.17;;;;;;;;;;5136452;27;20305;-73
2022/10/20 13:26:46;;;;;;;79.45;16.98;;;;;;;;;;5134985;27;20442;-71
2022/10/20 13:29:17;;;;;;;38.45;15.27;;;;;;;;;;5115340;28;20520;-70
2022/10/20 13:31:55;;;;;;;34.93;15.23;;;;;;;;;;5132567;27;20378;-71
2022/10/20 13:34:24;;;;;;;147.45;19.60;;;;;;;;;;5135566;27;20658;-72
2022/10/20 13:36:50;;;;;;;332.67;26.50;;;;;;;;;;5132629;27;20106;-71
2022/10/20 13:39:26;;;;;;;748.88;44.00;;;;;;;;;;5138105;27;20496;-71
2022/10/20 13:42:04;;;;;;;194.02;20.98;;;;;;;;;;5138056;27;20035;-70
2022/10/20 13:44:33;;;;;;;71.70;16.30;;;;;;;;;;5132409;27;20039;-71
2022/10/20 13:47:05;;;;;;;45.90;16.30;;;;;;;;;;5114637;28;20484;-71
2022/10/20 13:49:50;;;;;;;39.53;15.02;;;;;;;;;;5117147;27;20108;-71
2022/10/20 13:52:16;;;;;;;32.58;15.90;;;;;;;;;;5140903;27;20091;-71
2022/10/20 13:54:45;;;;;;;19.98;14.35;;;;;;;;;;5157643;27;20042;-70
2022/10/20 13:57:21;;;;;;;26.38;15.15;;;;;;;;;;5136349;27;20070;-70
2022/10/20 13:59:54;;;;;;;24.50;14.80;;;;;;;;;;5140104;27;20054;-71
2022/10/20 14:02:23;;;;;;;18.15;14.90;;;;;;;;;;5137798;27;20065;-72
2022/10/20 14:05:00;;;;;;;17.33;14.77;;;;;;;;;;5147414;27;20039;-70
2022/10/20 14:07:35;;;;;;;18.58;16.48;;;;;;;;;;5157444;27;20046;-70
2022/10/20 14:10:01;;;;;;;18.77;14.35;;;;;;;;;;5146668;27;20049;-71
2022/10/20 14:12:27;;;;;;;18.27;15.77;;;;;;;;;;5141293;27;20042;-71
2022/10/20 14:14:55;;;;;;;21.38;16.58;;;;;;;;;;5138224;27;20051;-72
2022/10/20 14:17:22;;;;;;;20.55;15.10;;;;;;;;;;5136362;27;20118;-72
2022/10/20 14:19:48;;;;;;;20.92;15.45;;;;;;;;;;5136567;27;20465;-71
2022/10/20 14:22:14;;;;;;;22.52;17.80;;;;;;;;;;5136412;27;20046;-72
2022/10/20 14:24:42;;;;;;;18.67;15.50;;;;;;;;;;5118086;27;20047;-71
2022/10/20 14:27:14;;;;;;;22.88;16.88;;;;;;;;;;5141869;27;20060;-71
2022/10/20 14:29:40;;;;;;;19.30;17.00;;;;;;;;;;5146244;27;20435;-71
2022/10/20 14:32:06;;;;;;;22.55;17.05;;;;;;;;;;5137843;27;20047;-72
2022/10/20 14:34:36;;;;;;;27.65;17.75;;;;;;;;;;5148551;27;20050;-72